PWSweather.com
Personal Weather Stations
Station Observations
SHAHALMS1
Eftra, Falkenberg, HA

EftraFalkenberg, HA

Lat: 56.85, Lon: 12.65

Elevation: 140

Station Type:

http://hem.passagen.se/risarp101

High Low Average
Temperature 63.7°F17.6°C 32.9°F0.5°C 48.2°F9.0°C
Dew Point 35.6°F2.0°C 15.5°F-9.2°C 26.2°F-3.2°C
Winds 9.0 mph 14.5 kmh Calm Calm 4.0 mph SE6.4 kmh SE
Wind Gusts 16.5 mph26.6 kmh -- 10.0 mph16.1 kmh
Humidity 54% 32% 43%
Pressure 30.54 in1034.2 mb 30.45 in1031.2 mb -
Precipitation 0.00 in0.0 mm - -
Hour Temp Dew Point Humidity Winds Wind Gusts Pressure Precip Precip Rate Daily Precip Total
12:00 AM 36.3°F2.4°C 16.5°F-8.6°C 44% 0.3 mph NNE0.5 kmh NNE 5.0 mph8.0 kmh 30.48 in1032.2 mb 0.00 in0.0 mm 0.00 in0.0 mm 0.00 in0.0 mm
12:15 AM 35.2°F1.8°C 15.5°F-9.2°C 44% 0.9 mph E1.4 kmh E 7.9 mph12.7 kmh 30.48 in1032.2 mb 0.00 in0.0 mm 0.00 in0.0 mm 0.00 in0.0 mm
12:30 AM 35.2°F1.8°C 15.5°F-9.2°C 44% 3.4 mph E5.5 kmh E 9.7 mph15.6 kmh 30.48 in1032.2 mb 0.00 in0.0 mm 0.00 in0.0 mm 0.00 in0.0 mm
12:45 AM 35.4°F1.9°C 15.6°F-9.1°C 44% 6.6 mph E10.6 kmh E 11.8 mph19.0 kmh 30.48 in1032.2 mb 0.00 in0.0 mm 0.00 in0.0 mm 0.00 in0.0 mm
01:00 AM 35.6°F2.0°C 16.3°F-8.7°C 45% 6.6 mph E10.6 kmh E 10.7 mph17.2 kmh 30.48 in1032.2 mb 0.00 in0.0 mm 0.00 in0.0 mm 0.00 in0.0 mm
01:15 AM 35.6°F2.0°C 16.3°F-8.7°C 45% 6.5 mph E10.5 kmh E 10.4 mph16.7 kmh 30.48 in1032.2 mb 0.00 in0.0 mm 0.00 in0.0 mm 0.00 in0.0 mm
01:30 AM 35.2°F1.8°C 16.0°F-8.9°C 45% 6.0 mph E9.7 kmh E 10.0 mph16.1 kmh 30.48 in1032.2 mb 0.00 in0.0 mm 0.00 in0.0 mm 0.00 in0.0 mm
01:45 AM 35.1°F1.7°C 15.8°F-9.0°C 45% 1.7 mph ENE2.7 kmh ENE 9.3 mph15.0 kmh 30.48 in1032.2 mb 0.00 in0.0 mm 0.00 in0.0 mm 0.00 in0.0 mm
02:00 AM 35.1°F1.7°C 16.3°F-8.7°C 46% 0.1 mph NE0.2 kmh NE 3.9 mph6.3 kmh 30.48 in1032.2 mb 0.00 in0.0 mm 0.00 in0.0 mm 0.00 in0.0 mm
02:15 AM 34.2°F1.2°C 15.5°F-9.2°C 46% 2.6 mph E4.2 kmh E 7.9 mph12.7 kmh 30.48 in1032.2 mb 0.00 in0.0 mm 0.00 in0.0 mm 0.00 in0.0 mm
02:30 AM 34.3°F1.3°C 16.2°F-8.8°C 47% 3.4 mph E5.5 kmh E 8.6 mph13.8 kmh 30.48 in1032.2 mb 0.00 in0.0 mm 0.00 in0.0 mm 0.00 in0.0 mm
02:45 AM 34.5°F1.4°C 16.3°F-8.7°C 47% 2.7 mph ENE4.3 kmh ENE 10.4 mph16.7 kmh 30.48 in1032.2 mb 0.00 in0.0 mm 0.00 in0.0 mm 0.00 in0.0 mm
03:00 AM 34.5°F1.4°C 16.8°F-8.4°C 48% 5.0 mph E8.0 kmh E 10.0 mph16.1 kmh 30.48 in1032.2 mb 0.00 in0.0 mm 0.00 in0.0 mm 0.00 in0.0 mm
03:15 AM 34.3°F1.3°C 17.1°F-8.3°C 49% 5.4 mph E8.7 kmh E 10.0 mph16.1 kmh 30.48 in1032.2 mb 0.00 in0.0 mm 0.00 in0.0 mm 0.00 in0.0 mm
03:30 AM 34.3°F1.3°C 17.1°F-8.3°C 49% 7.5 mph E12.1 kmh E 10.4 mph16.7 kmh 30.48 in1032.2 mb 0.00 in0.0 mm 0.00 in0.0 mm 0.00 in0.0 mm
03:45 AM 34.3°F1.3°C 17.6°F-8.0°C 50% 7.8 mph E12.6 kmh E 12.2 mph19.6 kmh 30.48 in1032.2 mb 0.00 in0.0 mm 0.00 in0.0 mm 0.00 in0.0 mm
04:00 AM 34.5°F1.4°C 17.8°F-7.9°C 50% 6.2 mph E10.0 kmh E 10.4 mph16.7 kmh 30.45 in1031.2 mb 0.00 in0.0 mm 0.00 in0.0 mm 0.00 in0.0 mm
04:15 AM 34.3°F1.3°C 17.6°F-8.0°C 50% 7.1 mph E11.4 kmh E 13.6 mph21.9 kmh 30.45 in1031.2 mb 0.00 in0.0 mm 0.00 in0.0 mm 0.00 in0.0 mm
04:30 AM 34.0°F1.1°C 17.3°F-8.2°C 50% 4.1 mph E6.6 kmh E 9.7 mph15.6 kmh 30.48 in1032.2 mb 0.00 in0.0 mm 0.00 in0.0 mm 0.00 in0.0 mm
04:45 AM 33.4°F0.8°C 16.8°F-8.4°C 50% 1.5 mph E2.4 kmh E 7.5 mph12.1 kmh 30.48 in1032.2 mb 0.00 in0.0 mm 0.00 in0.0 mm 0.00 in0.0 mm
05:00 AM 33.1°F0.6°C 16.9°F-8.4°C 51% 1.0 mph E1.6 kmh E 7.5 mph12.1 kmh 30.51 in1033.2 mb 0.00 in0.0 mm 0.00 in0.0 mm 0.00 in0.0 mm
05:15 AM 32.9°F0.5°C 16.7°F-8.5°C 51% 0.3 mph E0.5 kmh E 6.1 mph9.8 kmh 30.48 in1032.2 mb 0.00 in0.0 mm 0.00 in0.0 mm 0.00 in0.0 mm
05:30 AM 33.3°F0.7°C 17.1°F-8.3°C 51% 6.4 mph E10.3 kmh E 10.0 mph16.1 kmh 30.48 in1032.2 mb 0.00 in0.0 mm 0.00 in0.0 mm 0.00 in0.0 mm
05:45 AM 34.0°F1.1°C 18.2°F-7.7°C 52% 4.0 mph E6.4 kmh E 10.0 mph16.1 kmh 30.45 in1031.2 mb 0.00 in0.0 mm 0.00 in0.0 mm 0.00 in0.0 mm
06:00 AM 34.5°F1.4°C 18.7°F-7.4°C 52% 0.3 mph SE0.5 kmh SE 4.3 mph6.9 kmh 30.48 in1032.2 mb 0.00 in0.0 mm 0.00 in0.0 mm 0.00 in0.0 mm
06:15 AM 35.1°F1.7°C 19.6°F-6.9°C 53% 0.5 mph E0.8 kmh E 7.2 mph11.6 kmh 30.48 in1032.2 mb 0.00 in0.0 mm 0.00 in0.0 mm 0.00 in0.0 mm
06:30 AM 36.0°F2.2°C 20.5°F-6.4°C 53% 1.3 mph E2.1 kmh E 9.7 mph15.6 kmh 30.48 in1032.2 mb 0.00 in0.0 mm 0.00 in0.0 mm 0.00 in0.0 mm
06:45 AM 37.2°F2.9°C 22.1°F-5.5°C 54% 3.5 mph E5.6 kmh E 8.6 mph13.8 kmh 30.48 in1032.2 mb 0.00 in0.0 mm 0.00 in0.0 mm 0.00 in0.0 mm
07:00 AM 38.7°F3.7°C 23.4°F-4.8°C 54% 5.2 mph E8.4 kmh E 10.0 mph16.1 kmh 30.48 in1032.2 mb 0.00 in0.0 mm 0.00 in0.0 mm 0.00 in0.0 mm
07:15 AM 39.9°F4.4°C 24.6°F-4.1°C 54% 5.6 mph E9.0 kmh E 11.8 mph19.0 kmh 30.48 in1032.2 mb 0.00 in0.0 mm 0.00 in0.0 mm 0.00 in0.0 mm
07:30 AM 41.4°F5.2°C 25.5°F-3.6°C 53% 6.6 mph E10.6 kmh E 12.5 mph20.1 kmh 30.48 in1032.2 mb 0.00 in0.0 mm 0.00 in0.0 mm 0.00 in0.0 mm
07:45 AM 42.8°F6.0°C 26.8°F-2.9°C 53% 7.1 mph E11.4 kmh E 12.5 mph20.1 kmh 30.51 in1033.2 mb 0.00 in0.0 mm 0.00 in0.0 mm 0.00 in0.0 mm
08:00 AM 43.9°F6.6°C 27.4°F-2.6°C 52% 3.5 mph ENE5.6 kmh ENE 9.7 mph15.6 kmh 30.51 in1033.2 mb 0.00 in0.0 mm 0.00 in0.0 mm 0.00 in0.0 mm
08:15 AM 45.0°F7.2°C 28.4°F-2.0°C 52% 5.6 mph E9.0 kmh E 12.9 mph20.8 kmh 30.51 in1033.2 mb 0.00 in0.0 mm 0.00 in0.0 mm 0.00 in0.0 mm
08:30 AM 46.0°F7.8°C 28.9°F-1.7°C 51% 6.9 mph E11.1 kmh E 11.1 mph17.9 kmh 30.51 in1033.2 mb 0.00 in0.0 mm 0.00 in0.0 mm 0.00 in0.0 mm
08:45 AM 46.9°F8.3°C 29.7°F-1.3°C 51% 7.3 mph E11.7 kmh E 12.5 mph20.1 kmh 30.51 in1033.2 mb 0.00 in0.0 mm 0.00 in0.0 mm 0.00 in0.0 mm
09:00 AM 47.8°F8.8°C 30.6°F-0.8°C 51% 3.5 mph E5.6 kmh E 10.0 mph16.1 kmh 30.51 in1033.2 mb 0.00 in0.0 mm 0.00 in0.0 mm 0.00 in0.0 mm
09:15 AM 48.6°F9.2°C 30.7°F-0.7°C 50% 2.4 mph E3.9 kmh E 8.9 mph14.3 kmh 30.51 in1033.2 mb 0.00 in0.0 mm 0.00 in0.0 mm 0.00 in0.0 mm
09:45 AM 49.8°F9.9°C 31.4°F-0.3°C 49% 3.2 mph NNE5.1 kmh NNE 12.2 mph19.6 kmh 30.51 in1033.2 mb 0.00 in0.0 mm 0.00 in0.0 mm 0.00 in0.0 mm
10:00 AM 51.3°F10.7°C 32.2°F0.1°C 48% 4.9 mph E7.9 kmh E 11.8 mph19.0 kmh 30.51 in1033.2 mb 0.00 in0.0 mm 0.00 in0.0 mm 0.00 in0.0 mm
10:15 AM 52.3°F11.3°C 32.7°F0.4°C 47% 5.3 mph E8.5 kmh E 10.4 mph16.7 kmh 30.51 in1033.2 mb 0.00 in0.0 mm 0.00 in0.0 mm 0.00 in0.0 mm
10:30 AM 53.1°F11.7°C 32.8°F0.4°C 46% 5.0 mph E8.0 kmh E 10.4 mph16.7 kmh 30.51 in1033.2 mb 0.00 in0.0 mm 0.00 in0.0 mm 0.00 in0.0 mm
10:45 AM 54.3°F12.4°C 32.8°F0.4°C 44% 4.7 mph ENE7.6 kmh ENE 10.4 mph16.7 kmh 30.51 in1033.2 mb 0.00 in0.0 mm 0.00 in0.0 mm 0.00 in0.0 mm
11:00 AM 55.4°F13.0°C 33.8°F1.0°C 44% 6.0 mph E9.7 kmh E 13.6 mph21.9 kmh 30.51 in1033.2 mb 0.00 in0.0 mm 0.00 in0.0 mm 0.00 in0.0 mm
11:15 AM 56.7°F13.7°C 34.4°F1.3°C 43% 5.2 mph E8.4 kmh E 12.5 mph20.1 kmh 30.51 in1033.2 mb 0.00 in0.0 mm 0.00 in0.0 mm 0.00 in0.0 mm
11:30 AM 57.6°F14.2°C 35.2°F1.8°C 43% 4.0 mph ENE6.4 kmh ENE 9.7 mph15.6 kmh 30.51 in1033.2 mb 0.00 in0.0 mm 0.00 in0.0 mm 0.00 in0.0 mm
11:45 AM 57.6°F14.2°C 34.0°F1.1°C 41% 2.4 mph NE3.9 kmh NE 8.9 mph14.3 kmh 30.51 in1033.2 mb 0.00 in0.0 mm 0.00 in0.0 mm 0.00 in0.0 mm
12:00 PM 58.6°F14.8°C 35.6°F2.0°C 42% 1.7 mph SE2.7 kmh SE 10.0 mph16.1 kmh 30.51 in1033.2 mb 0.00 in0.0 mm 0.00 in0.0 mm 0.00 in0.0 mm
12:15 PM 59.7°F15.4°C 34.7°F1.5°C 39% 5.7 mph ESE9.2 kmh ESE 14.0 mph22.5 kmh 30.51 in1033.2 mb 0.00 in0.0 mm 0.00 in0.0 mm 0.00 in0.0 mm
12:30 PM 60.4°F15.8°C 34.7°F1.5°C 38% 3.2 mph E5.1 kmh E 12.9 mph20.8 kmh 30.51 in1033.2 mb 0.00 in0.0 mm 0.00 in0.0 mm 0.00 in0.0 mm
12:45 PM 61.3°F16.3°C 34.1°F1.2°C 36% 9.0 mph E14.5 kmh E 16.5 mph26.6 kmh 30.51 in1033.2 mb 0.00 in0.0 mm 0.00 in0.0 mm 0.00 in0.0 mm
01:00 PM 61.5°F16.4°C 34.3°F1.3°C 36% 6.8 mph E10.9 kmh E 13.6 mph21.9 kmh 30.51 in1033.2 mb 0.00 in0.0 mm 0.00 in0.0 mm 0.00 in0.0 mm
01:15 PM 62.2°F16.8°C 34.2°F1.2°C 35% 6.9 mph E11.1 kmh E 14.3 mph23.0 kmh 30.51 in1033.2 mb 0.00 in0.0 mm 0.00 in0.0 mm 0.00 in0.0 mm
01:30 PM 63.1°F17.3°C 34.3°F1.3°C 34% 6.2 mph SE10.0 kmh SE 13.6 mph21.9 kmh 30.48 in1032.2 mb 0.00 in0.0 mm 0.00 in0.0 mm 0.00 in0.0 mm
01:45 PM 63.3°F17.4°C 33.7°F0.9°C 33% 5.1 mph WSW8.2 kmh WSW 10.4 mph16.7 kmh 30.48 in1032.2 mb 0.00 in0.0 mm 0.00 in0.0 mm 0.00 in0.0 mm
02:00 PM 63.1°F17.3°C 33.5°F0.8°C 33% 6.6 mph SW10.6 kmh SW 11.8 mph19.0 kmh 30.48 in1032.2 mb 0.00 in0.0 mm 0.00 in0.0 mm 0.00 in0.0 mm
02:15 PM 62.8°F17.1°C 33.2°F0.7°C 33% 6.5 mph WSW10.5 kmh WSW 11.8 mph19.0 kmh 30.48 in1032.2 mb 0.00 in0.0 mm 0.00 in0.0 mm 0.00 in0.0 mm
02:30 PM 62.6°F17.0°C 33.1°F0.6°C 33% 5.4 mph WSW8.7 kmh WSW 12.9 mph20.8 kmh 30.48 in1032.2 mb 0.00 in0.0 mm 0.00 in0.0 mm 0.00 in0.0 mm
02:45 PM 62.6°F17.0°C 33.1°F0.6°C 33% 5.3 mph W8.5 kmh W 11.8 mph19.0 kmh 30.48 in1032.2 mb 0.00 in0.0 mm 0.00 in0.0 mm 0.00 in0.0 mm
03:00 PM 63.1°F17.3°C 33.5°F0.8°C 33% 4.6 mph W7.4 kmh W 8.9 mph14.3 kmh 30.48 in1032.2 mb 0.00 in0.0 mm 0.00 in0.0 mm 0.00 in0.0 mm
03:15 PM 63.1°F17.3°C 33.5°F0.8°C 33% 3.7 mph W6.0 kmh W 9.3 mph15.0 kmh 30.48 in1032.2 mb 0.00 in0.0 mm 0.00 in0.0 mm 0.00 in0.0 mm
03:30 PM 63.5°F17.5°C 33.9°F1.1°C 33% 3.9 mph W6.3 kmh W 12.2 mph19.6 kmh 30.48 in1032.2 mb 0.00 in0.0 mm 0.00 in0.0 mm 0.00 in0.0 mm
03:45 PM 63.7°F17.6°C 33.2°F0.7°C 32% 4.0 mph W6.4 kmh W 10.0 mph16.1 kmh 30.45 in1031.2 mb 0.00 in0.0 mm 0.00 in0.0 mm 0.00 in0.0 mm
04:00 PM 63.5°F17.5°C 33.1°F0.6°C 32% 4.3 mph NW6.9 kmh NW 9.3 mph15.0 kmh 30.48 in1032.2 mb 0.00 in0.0 mm 0.00 in0.0 mm 0.00 in0.0 mm
04:15 PM 63.1°F17.3°C 32.8°F0.4°C 32% 4.0 mph W6.4 kmh W 10.0 mph16.1 kmh 30.45 in1031.2 mb 0.00 in0.0 mm 0.00 in0.0 mm 0.00 in0.0 mm
04:30 PM 63.0°F17.2°C 32.6°F0.3°C 32% 3.5 mph WNW5.6 kmh WNW 9.3 mph15.0 kmh 30.45 in1031.2 mb 0.00 in0.0 mm 0.00 in0.0 mm 0.00 in0.0 mm
04:45 PM 62.2°F16.8°C 32.8°F0.4°C 33% 4.6 mph NW7.4 kmh NW 10.7 mph17.2 kmh 30.45 in1031.2 mb 0.00 in0.0 mm 0.00 in0.0 mm 0.00 in0.0 mm
05:00 PM 61.5°F16.4°C 31.4°F-0.3°C 32% 6.4 mph NW10.3 kmh NW 12.5 mph20.1 kmh 30.48 in1032.2 mb 0.00 in0.0 mm 0.00 in0.0 mm 0.00 in0.0 mm
05:15 PM 61.0°F16.1°C 30.9°F-0.6°C 32% 3.6 mph NW5.8 kmh NW 8.6 mph13.8 kmh 30.45 in1031.2 mb 0.00 in0.0 mm 0.00 in0.0 mm 0.00 in0.0 mm
05:30 PM 60.6°F15.9°C 31.3°F-0.4°C 33% 4.6 mph NW7.4 kmh NW 10.4 mph16.7 kmh 30.48 in1032.2 mb 0.00 in0.0 mm 0.00 in0.0 mm 0.00 in0.0 mm
05:45 PM 59.9°F15.5°C 30.7°F-0.7°C 33% 3.2 mph WNW5.1 kmh WNW 7.9 mph12.7 kmh 30.48 in1032.2 mb 0.00 in0.0 mm 0.00 in0.0 mm 0.00 in0.0 mm
06:00 PM 59.0°F15.0°C 29.9°F-1.2°C 33% 2.1 mph WNW3.4 kmh WNW 6.4 mph10.3 kmh 30.48 in1032.2 mb 0.00 in0.0 mm 0.00 in0.0 mm 0.00 in0.0 mm
06:15 PM 58.1°F14.5°C 29.1°F-1.6°C 33% 3.0 mph WNW4.8 kmh WNW 10.4 mph16.7 kmh 30.45 in1031.2 mb 0.00 in0.0 mm 0.00 in0.0 mm 0.00 in0.0 mm
06:30 PM 57.4°F14.1°C 28.5°F-1.9°C 33% 3.3 mph WNW5.3 kmh WNW 9.3 mph15.0 kmh 30.48 in1032.2 mb 0.00 in0.0 mm 0.00 in0.0 mm 0.00 in0.0 mm
06:45 PM 56.5°F13.6°C 27.7°F-2.4°C 33% 1.7 mph NW2.7 kmh NW 6.4 mph10.3 kmh 30.45 in1031.2 mb 0.00 in0.0 mm 0.00 in0.0 mm 0.00 in0.0 mm
07:00 PM 55.4°F13.0°C 27.5°F-2.5°C 34% 0.2 mph NW0.3 kmh NW 3.9 mph6.3 kmh 30.48 in1032.2 mb 0.00 in0.0 mm 0.00 in0.0 mm 0.00 in0.0 mm
07:15 PM 54.3°F12.4°C 26.5°F-3.1°C 34% 0.2 mph W0.3 kmh W 4.7 mph7.6 kmh 30.45 in1031.2 mb 0.00 in0.0 mm 0.00 in0.0 mm 0.00 in0.0 mm
07:30 PM 53.4°F11.9°C 25.7°F-3.5°C 34% 0.3 mph NW0.5 kmh NW 5.0 mph8.0 kmh 30.48 in1032.2 mb 0.00 in0.0 mm 0.00 in0.0 mm 0.00 in0.0 mm
07:45 PM 52.5°F11.4°C 25.6°F-3.6°C 35% 0.1 mph NW0.2 kmh NW 1.8 mph2.9 kmh 30.48 in1032.2 mb 0.00 in0.0 mm 0.00 in0.0 mm 0.00 in0.0 mm
08:00 PM 51.8°F11.0°C 25.7°F-3.5°C 36% Calm Calm -- 30.48 in1032.2 mb 0.00 in0.0 mm 0.00 in0.0 mm 0.00 in0.0 mm
08:15 PM 51.1°F10.6°C 25.0°F-3.9°C 36% Calm Calm -- 30.48 in1032.2 mb 0.00 in0.0 mm 0.00 in0.0 mm 0.00 in0.0 mm
08:30 PM 50.0°F10.0°C 24.7°F-4.1°C 37% Calm Calm -- 30.48 in1032.2 mb 0.00 in0.0 mm 0.00 in0.0 mm 0.00 in0.0 mm
08:45 PM 48.9°F9.4°C 25.0°F-3.9°C 39% 4.0 mph SE6.4 kmh SE 11.5 mph18.5 kmh 30.51 in1033.2 mb 0.00 in0.0 mm 0.00 in0.0 mm 0.00 in0.0 mm
09:00 PM 47.8°F8.8°C 25.2°F-3.8°C 41% 1.8 mph SSE2.9 kmh SSE 9.3 mph15.0 kmh 30.48 in1032.2 mb 0.00 in0.0 mm 0.00 in0.0 mm 0.00 in0.0 mm
09:15 PM 46.4°F8.0°C 25.1°F-3.8°C 43% 4.7 mph SE7.6 kmh SE 10.0 mph16.1 kmh 30.51 in1033.2 mb 0.00 in0.0 mm 0.00 in0.0 mm 0.00 in0.0 mm
09:30 PM 45.5°F7.5°C 25.4°F-3.7°C 45% 6.7 mph SE10.8 kmh SE 12.5 mph20.1 kmh 30.51 in1033.2 mb 0.00 in0.0 mm 0.00 in0.0 mm 0.00 in0.0 mm
09:45 PM 45.1°F7.3°C 26.1°F-3.3°C 47% 7.5 mph ESE12.1 kmh ESE 11.8 mph19.0 kmh 30.51 in1033.2 mb 0.00 in0.0 mm 0.00 in0.0 mm 0.00 in0.0 mm
10:00 PM 45.0°F7.2°C 26.4°F-3.1°C 48% 8.8 mph SE14.2 kmh SE 14.0 mph22.5 kmh 30.51 in1033.2 mb 0.00 in0.0 mm 0.00 in0.0 mm 0.00 in0.0 mm
10:15 PM 45.0°F7.2°C 26.9°F-2.8°C 49% 8.6 mph E13.8 kmh E 14.0 mph22.5 kmh 30.54 in1034.2 mb 0.00 in0.0 mm 0.00 in0.0 mm 0.00 in0.0 mm
10:30 PM 45.1°F7.3°C 27.6°F-2.4°C 50% 5.5 mph SE8.9 kmh SE 15.7 mph25.3 kmh 30.54 in1034.2 mb 0.00 in0.0 mm 0.00 in0.0 mm 0.00 in0.0 mm
10:45 PM 45.0°F7.2°C 27.4°F-2.6°C 50% 5.5 mph E8.9 kmh E 10.0 mph16.1 kmh 30.54 in1034.2 mb 0.00 in0.0 mm 0.00 in0.0 mm 0.00 in0.0 mm
11:00 PM 44.4°F6.9°C 26.9°F-2.8°C 50% 5.4 mph ESE8.7 kmh ESE 12.2 mph19.6 kmh 30.54 in1034.2 mb 0.00 in0.0 mm 0.00 in0.0 mm 0.00 in0.0 mm
11:15 PM 43.9°F6.6°C 26.9°F-2.8°C 51% 1.3 mph SE2.1 kmh SE 8.9 mph14.3 kmh 30.51 in1033.2 mb 0.00 in0.0 mm 0.00 in0.0 mm 0.00 in0.0 mm
11:30 PM 43.7°F6.5°C 26.7°F-2.9°C 51% 2.7 mph SE4.3 kmh SE 12.2 mph19.6 kmh 30.54 in1034.2 mb 0.00 in0.0 mm 0.00 in0.0 mm 0.00 in0.0 mm
11:45 PM 43.5°F6.4°C 26.6°F-3.0°C 51% 4.2 mph SE6.8 kmh SE 9.3 mph15.0 kmh 30.54 in1034.2 mb 0.00 in0.0 mm 0.00 in0.0 mm 0.00 in0.0 mm